Time;durP1;ratioP1;P1;durP2;ratioP2;P2;SDS_P1;SDS_P2;PMS_P1;PMS_P2;Temp;Humidity;BMP_temperature;BMP_pressure;BME280_temperature;BME280_humidity;BME280_pressure;Samples;Min_cycle;Max_cycle;Signal;HPM_P1;HPM_P2
2022/08/19 00:02:03;;;;;;;5.93;5.47;;;19.70;60.30;;;;;;5054443;28;20108;-87
2022/08/19 00:04:36;;;;;;;6.55;5.95;;;19.70;63.30;;;;;;5054157;28;20108;-88
2022/08/19 00:07:03;;;;;;;6.00;5.50;;;19.70;70.20;;;;;;5054147;28;20041;-87
2022/08/19 00:09:29;;;;;;;6.85;6.28;;;19.70;69.90;;;;;;5053842;28;20020;-88
2022/08/19 00:11:56;;;;;;;6.88;6.28;;;19.80;59.60;;;;;;5053918;28;20033;-88
2022/08/19 00:14:24;;;;;;;7.15;6.53;;;19.80;67.40;;;;;;5053875;28;20021;-88
2022/08/19 00:16:51;;;;;;;6.60;6.00;;;19.80;70.60;;;;;;5053804;28;20044;-88
2022/08/19 00:19:16;;;;;;;7.22;6.53;;;19.80;66.00;;;;;;5054093;28;20029;-88
2022/08/19 00:21:43;;;;;;;7.03;6.43;;;19.80;70.90;;;;;;5053923;28;20021;-88
2022/08/19 00:24:10;;;;;;;7.30;6.65;;;19.70;63.00;;;;;;5053494;28;20041;-89
2022/08/19 00:26:37;;;;;;;7.88;7.18;;;19.50;61.80;;;;;;5053620;28;20056;-90
2022/08/19 00:29:04;;;;;;;7.40;6.80;;;19.50;70.10;;;;;;5053462;28;20037;-89
2022/08/19 00:31:30;;;;;;;7.57;6.93;;;19.50;69.20;;;;;;5035912;28;20123;-89
2022/08/19 00:33:56;;;;;;;9.57;7.28;;;19.40;64.60;;;;;;5053763;28;20437;-90
2022/08/19 00:36:22;;;;;;;7.90;7.10;;;19.40;61.70;;;;;;5053549;28;20023;-90
2022/08/19 00:38:49;;;;;;;8.25;7.47;;;19.30;60.40;;;;;;5053278;28;20025;-90
2022/08/19 00:41:20;;;;;;;7.63;7.03;;;19.30;74.60;;;;;;5053460;28;20055;-90
2022/08/19 00:44:02;;;;;;;7.55;6.95;;;19.30;76.00;;;;;;5053546;28;20029;-90
2022/08/19 00:46:28;;;;;;;7.70;7.10;;;19.30;78.60;;;;;;5053185;28;20025;-90
2022/08/19 00:48:56;;;;;;;7.53;6.93;;;19.30;77.00;;;;;;5053227;28;20114;-89
2022/08/19 00:51:25;;;;;;;8.60;7.70;;;19.30;73.90;;;;;;5053337;28;20495;-89
2022/08/19 00:53:51;;;;;;;8.85;8.05;;;19.30;66.40;;;;;;5052857;28;20492;-89
2022/08/19 00:56:18;;;;;;;8.80;8.10;;;19.30;62.90;;;;;;5053414;28;20064;-90
2022/08/19 00:58:44;;;;;;;8.25;7.55;;;19.30;60.70;;;;;;5053144;28;20017;-89
2022/08/19 01:01:09;;;;;;;8.25;7.35;;;19.40;64.20;;;;;;5053101;28;20321;-90
2022/08/19 01:03:35;;;;;;;9.55;8.07;;;19.30;63.80;;;;;;5053148;28;20021;-89
2022/08/19 01:06:01;;;;;;;9.15;8.32;;;19.40;66.40;;;;;;5052973;28;20028;-89
2022/08/19 01:08:26;;;;;;;9.43;8.52;;;19.40;65.40;;;;;;5052838;28;20055;-89
2022/08/19 01:10:56;;;;;;;9.55;8.57;;;19.20;68.10;;;;;;5052979;28;20025;-89
2022/08/19 01:13:25;;;;;;;9.88;8.98;;;19.30;79.50;;;;;;5052790;28;20135;-89
2022/08/19 01:16:11;;;;;;;9.77;8.82;;;19.20;83.20;;;;;;5052809;28;20079;-90
2022/08/19 01:18:40;;;;;;;9.38;8.48;;;19.20;77.60;;;;;;5052728;28;20025;-89
2022/08/19 01:21:15;;;;;;;9.43;8.63;;;19.20;80.60;;;;;;5052439;28;20366;-88
2022/08/19 01:23:42;;;;;;;10.40;9.40;;;19.10;79.40;;;;;;5052803;28;20497;-89
2022/08/19 01:26:11;;;;;;;10.10;9.18;;;19.20;88.50;;;;;;5052754;28;20052;-90
2022/08/19 01:28:38;;;;;;;10.52;9.52;;;19.10;82.90;;;;;;5052392;28;20414;-89
2022/08/19 01:31:04;;;;;;;10.93;9.93;;;19.10;77.50;;;;;;5052646;28;20025;-89
2022/08/19 01:33:30;;;;;;;10.65;9.75;;;19.00;86.80;;;;;;5052573;28;20060;-90
2022/08/19 01:36:36;;;;;;;10.50;9.50;;;18.90;83.00;;;;;;5052357;28;20051;-89
2022/08/19 01:39:08;;;;;;;11.38;10.38;;;18.90;82.60;;;;;;5042193;28;20045;-89
2022/08/19 01:41:34;;;;;;;11.27;10.00;;;18.90;88.10;;;;;;5052487;28;20087;-89
2022/08/19 01:44:03;;;;;;;10.82;9.82;;;19.00;77.90;;;;;;5052653;28;20029;-89
2022/08/19 01:46:29;;;;;;;10.80;9.77;;;19.00;74.10;;;;;;5034503;28;20075;-90
2022/08/19 01:48:56;;;;;;;10.65;9.68;;;19.10;86.30;;;;;;5052439;28;20039;-89
2022/08/19 01:51:22;;;;;;;10.20;9.38;;;19.10;89.30;;;;;;5052136;28;20056;-89
2022/08/19 01:53:49;;;;;;;11.35;10.13;;;19.10;83.50;;;;;;5056873;28;20477;-89
2022/08/19 01:56:15;;;;;;;10.85;9.82;;;19.20;80.90;;;;;;5058927;28;20059;-89
2022/08/19 01:58:49;;;;;;;10.38;9.50;;;19.10;85.60;;;;;;5058977;28;20070;-89
2022/08/19 02:01:15;;;;;;;10.27;9.27;;;19.10;77.10;;;;;;5059020;28;20041;-90
2022/08/19 02:03:40;;;;;;;10.20;9.30;;;19.00;88.60;;;;;;5059022;28;20056;-89
2022/08/19 02:06:06;;;;;;;9.85;9.00;;;19.00;67.60;;;;;;5058621;28;20064;-89
2022/08/19 02:08:35;;;;;;;12.43;9.65;;;19.10;68.60;;;;;;5058850;28;20036;-90
2022/08/19 02:11:00;;;;;;;11.02;10.02;;;19.20;79.10;;;;;;5059016;28;20017;-89
2022/08/19 02:13:26;;;;;;;10.73;9.82;;;19.20;78.50;;;;;;5058717;28;20718;-90
2022/08/19 02:15:52;;;;;;;10.20;9.30;;;19.30;86.60;;;;;;5040980;28;20025;-89
2022/08/19 02:18:18;;;;;;;9.77;8.88;;;19.30;84.00;;;;;;5058916;28;20032;-89
2022/08/19 02:20:46;;;;;;;9.00;8.20;;;19.30;72.10;;;;;;5058588;28;20025;-90
2022/08/19 02:23:13;;;;;;;12.43;9.15;;;19.30;81.40;;;;;;5058964;28;20493;-89
2022/08/19 02:25:38;;;;;;;10.05;9.15;;;19.30;79.10;;;;;;5058779;28;20028;-90
2022/08/19 02:28:05;;;;;;;10.32;9.32;;;19.20;70.90;;;;;;5058585;28;20053;-89
2022/08/19 02:30:31;;;;;;;9.15;8.25;;;19.20;80.60;;;;;;5058294;28;20029;-89
2022/08/19 02:32:57;;;;;;;9.20;8.40;;;19.20;85.20;;;;;;5058806;28;20091;-90
2022/08/19 02:35:23;;;;;;;9.30;8.40;;;19.20;77.80;;;;;;5058336;28;20032;-90
2022/08/19 02:40:36;;;;;;;7.97;7.28;;;19.20;75.60;;;;;;5058635;28;20108;-90
2022/08/19 02:43:08;;;;;;;8.20;7.38;;;19.20;75.60;;;;;;5058833;28;20052;-89
2022/08/19 02:45:35;;;;;;;8.25;7.55;;;19.20;77.90;;;;;;5058609;28;20021;-89
2022/08/19 02:48:02;;;;;;;8.50;7.70;;;19.20;78.70;;;;;;5058595;28;20117;-89
2022/08/19 02:50:28;;;;;;;8.75;7.72;;;19.30;81.00;;;;;;5058216;28;20052;-90
2022/08/19 02:52:54;;;;;;;8.45;7.65;;;19.20;71.00;;;;;;5058577;28;20033;-89
2022/08/19 02:55:20;;;;;;;8.13;7.32;;;19.20;68.70;;;;;;5058564;28;20056;-89
2022/08/19 02:57:46;;;;;;;8.10;7.35;;;19.20;70.00;;;;;;5058567;28;20485;-89
2022/08/19 03:00:13;;;;;;;9.07;7.80;;;19.30;75.50;;;;;;5058333;28;20021;-89
2022/08/19 03:02:39;;;;;;;9.88;7.63;;;19.30;77.60;;;;;;5058213;28;20079;-89
2022/08/19 03:05:06;;;;;;;8.00;7.20;;;19.10;80.30;;;;;;5037343;28;20021;-89
2022/08/19 03:07:32;;;;;;;8.30;7.60;;;19.20;80.50;;;;;;5055078;28;20059;-89
2022/08/19 03:09:58;;;;;;;8.32;7.40;;;19.20;65.70;;;;;;5037398;28;20021;-89
2022/08/19 03:12:23;;;;;;;8.93;6.88;;;19.20;67.80;;;;;;5055192;28;20060;-89
2022/08/19 03:14:50;;;;;;;8.20;7.35;;;19.20;62.00;;;;;;5036956;28;20025;-89
2022/08/19 03:17:16;;;;;;;7.90;7.30;;;19.10;76.00;;;;;;5054689;28;20033;-89
2022/08/19 03:19:42;;;;;;;8.48;7.55;;;19.10;69.80;;;;;;5037205;28;20035;-90
2022/08/19 03:22:08;;;;;;;7.70;7.10;;;19.10;77.90;;;;;;5054991;28;20025;-90
2022/08/19 03:24:34;;;;;;;8.27;7.47;;;19.10;70.90;;;;;;5054996;28;20029;-89
2022/08/19 03:26:59;;;;;;;8.35;7.65;;;19.00;68.80;;;;;;5054701;28;20057;-90
2022/08/19 03:29:31;;;;;;;8.88;8.00;;;18.90;72.60;;;;;;5054687;28;20547;-89
2022/08/19 03:32:02;;;;;;;9.40;8.20;;;18.90;90.30;;;;;;5054507;28;20036;-89
2022/08/19 03:34:30;;;;;;;8.52;7.72;;;19.00;80.10;;;;;;5054752;28;20025;-89
2022/08/19 03:36:58;;;;;;;9.85;8.95;;;19.00;83.70;;;;;;5054716;28;20051;-89
2022/08/19 03:39:25;;;;;;;9.35;8.55;;;19.00;86.60;;;;;;5054759;28;20025;-90
2022/08/19 03:41:52;;;;;;;9.55;8.65;;;19.10;81.20;;;;;;5054675;28;20025;-89
2022/08/19 03:44:21;;;;;;;9.93;8.93;;;19.10;84.80;;;;;;5054594;28;20033;-90
2022/08/19 03:46:51;;;;;;;12.88;9.45;;;19.00;86.00;;;;;;5054204;28;20035;-90
2022/08/19 03:49:17;;;;;;;10.15;9.20;;;19.00;83.70;;;;;;5054539;28;20588;-89
2022/08/19 03:51:43;;;;;;;9.98;8.98;;;19.10;88.60;;;;;;5054512;28;20032;-90
2022/08/19 03:54:13;;;;;;;9.82;9.02;;;19.10;72.40;;;;;;5036403;28;20021;-90
2022/08/19 03:56:41;;;;;;;11.68;9.48;;;19.20;86.90;;;;;;5054395;28;20025;-89
2022/08/19 03:59:15;;;;;;;10.35;9.40;;;19.20;85.20;;;;;;5054258;28;20058;-90
2022/08/19 04:01:41;;;;;;;9.23;8.32;;;19.30;92.20;;;;;;5036304;28;20027;-89
2022/08/19 04:04:07;;;;;;;9.70;8.80;;;19.20;87.70;;;;;;5054137;28;20060;-89
2022/08/19 04:06:35;;;;;;;8.68;7.90;;;19.20;84.80;;;;;;5054079;28;20040;-89
2022/08/19 04:09:05;;;;;;;9.52;8.63;;;19.10;89.10;;;;;;5054155;28;20033;-89
2022/08/19 04:11:35;;;;;;;9.23;8.48;;;19.10;90.00;;;;;;5054008;28;20025;-89
2022/08/19 04:14:01;;;;;;;9.27;8.48;;;19.10;94.70;;;;;;5053993;28;20123;-89
2022/08/19 04:16:30;;;;;;;10.23;9.32;;;19.00;89.80;;;;;;5053169;28;20434;-90
2022/08/19 04:18:59;;;;;;;10.02;9.13;;;19.10;92.60;;;;;;5053930;28;20032;-90
2022/08/19 04:21:26;;;;;;;10.00;8.98;;;19.00;89.80;;;;;;5053981;28;20537;-90
2022/08/19 04:23:53;;;;;;;9.32;8.45;;;19.00;98.10;;;;;;5053989;28;20389;-90
2022/08/19 04:26:25;;;;;;;10.35;9.38;;;19.00;90.10;;;;;;5053513;28;20021;-90
2022/08/19 04:28:51;;;;;;;10.27;9.30;;;19.10;93.60;;;;;;5053493;28;20041;-89
2022/08/19 04:31:20;;;;;;;9.95;9.05;;;19.10;92.30;;;;;;5053479;28;20104;-89
2022/08/19 04:33:46;;;;;;;10.35;9.35;;;19.20;92.30;;;;;;5053810;28;20013;-90
2022/08/19 04:36:21;;;;;;;10.15;9.25;;;19.10;90.90;;;;;;5053523;28;20477;-89
2022/08/19 04:38:48;;;;;;;11.45;9.63;;;19.10;92.50;;;;;;5053531;28;20033;-89
2022/08/19 04:43:58;;;;;;;10.95;9.85;;;19.00;86.20;;;;;;5046207;28;20036;-89
2022/08/19 04:46:24;;;;;;;10.85;9.82;;;19.00;81.80;;;;;;5052900;28;20033;-90
2022/08/19 04:48:49;;;;;;;11.25;10.27;;;19.10;85.60;;;;;;5053393;28;20041;-89
2022/08/19 04:51:15;;;;;;;11.43;10.32;;;19.10;76.10;;;;;;5053403;28;20112;-90
2022/08/19 04:53:41;;;;;;;11.18;10.15;;;19.00;85.00;;;;;;5053193;28;20040;-89
2022/08/19 04:56:12;;;;;;;11.25;9.93;;;19.10;81.50;;;;;;5053297;28;20029;-89
2022/08/19 04:58:41;;;;;;;12.73;10.90;;;19.10;85.70;;;;;;5052905;28;20017;-90
2022/08/19 05:01:09;;;;;;;11.30;10.10;;;19.20;81.40;;;;;;5053249;28;20108;-89
2022/08/19 05:03:36;;;;;;;10.55;9.55;;;19.20;71.00;;;;;;5053062;28;20108;-89
2022/08/19 05:06:07;;;;;;;10.73;9.73;;;19.20;75.50;;;;;;5052937;28;20485;-89
2022/08/19 05:08:35;;;;;;;11.68;9.98;;;19.20;82.30;;;;;;5052996;28;20124;-89
2022/08/19 05:11:10;;;;;;;10.75;9.85;;;19.20;93.60;;;;;;5052919;28;20024;-89
2022/08/19 05:13:36;;;;;;;11.50;10.48;;;19.20;84.70;;;;;;5052433;28;20036;-89
2022/08/19 05:16:03;;;;;;;10.70;9.60;;;19.10;81.80;;;;;;5052678;28;20028;-89
2022/08/19 05:24:01;;;;;;;11.32;10.23;;;19.20;86.10;;;;;;5053059;28;20043;-89
2022/08/19 05:26:27;;;;;;;11.93;10.65;;;19.20;82.40;;;;;;5052416;28;20025;-89
2022/08/19 05:28:53;;;;;;;11.00;9.90;;;19.20;78.00;;;;;;5051536;28;20083;-89
2022/08/19 05:31:19;;;;;;;11.45;10.32;;;19.20;78.60;;;;;;5052576;28;20026;-89
2022/08/19 05:33:45;;;;;;;11.65;9.65;;;19.10;86.80;;;;;;5052648;28;20044;-89
2022/08/19 05:36:11;;;;;;;11.65;10.55;;;19.10;77.60;;;;;;5052610;28;20014;-90
2022/08/19 05:38:37;;;;;;;10.77;9.77;;;19.20;77.80;;;;;;5052601;28;20033;-89
2022/08/19 05:41:08;;;;;;;11.48;10.48;;;19.20;75.20;;;;;;5034650;28;20025;-89
2022/08/19 05:43:34;;;;;;;11.25;10.10;;;19.20;87.20;;;;;;5052105;28;20040;-89
2022/08/19 05:45:59;;;;;;;10.98;9.95;;;19.20;80.60;;;;;;5052611;28;20473;-90
2022/08/19 05:48:26;;;;;;;11.48;10.38;;;19.20;86.90;;;;;;5052431;28;20410;-89
2022/08/19 05:50:52;;;;;;;11.43;10.25;;;19.30;85.80;;;;;;5034504;28;20477;-90
2022/08/19 05:53:18;;;;;;;11.45;10.25;;;19.30;88.40;;;;;;5052447;28;20147;-89
2022/08/19 05:55:44;;;;;;;12.32;11.05;;;19.20;87.70;;;;;;5052365;28;20032;-89
2022/08/19 05:58:09;;;;;;;11.77;10.30;;;19.20;77.60;;;;;;5052115;28;20037;-89
2022/08/19 06:00:37;;;;;;;10.93;9.98;;;19.20;82.10;;;;;;5052393;28;20025;-89
2022/08/19 06:03:03;;;;;;;11.25;10.07;;;19.30;89.60;;;;;;5052389;28;20071;-89
2022/08/19 06:05:30;;;;;;;12.68;10.65;;;19.40;83.20;;;;;;5052204;28;20104;-89
2022/08/19 06:07:56;;;;;;;11.25;10.20;;;19.20;89.10;;;;;;5052262;28;20041;-89
2022/08/19 06:10:22;;;;;;;12.00;10.90;;;19.20;78.00;;;;;;5052301;28;20031;-89
2022/08/19 06:12:48;;;;;;;12.30;10.27;;;19.10;84.30;;;;;;5051800;28;20027;-89
2022/08/19 06:15:14;;;;;;;11.82;10.63;;;19.10;73.40;;;;;;5051908;28;20053;-89
2022/08/19 06:17:41;;;;;;;10.82;9.82;;;19.20;81.90;;;;;;5052211;28;20025;-90
2022/08/19 06:20:11;;;;;;;10.73;9.65;;;19.30;93.60;;;;;;5052283;28;20017;-89
2022/08/19 06:22:51;;;;;;;12.77;11.20;;;19.40;89.70;;;;;;5052180;28;20033;-89
2022/08/19 06:25:17;;;;;;;11.32;10.10;;;19.60;88.20;;;;;;5052084;28;20530;-89
2022/08/19 06:27:44;;;;;;;11.50;10.27;;;19.60;90.90;;;;;;5051532;28;20053;-89
2022/08/19 06:30:12;;;;;;;10.95;9.85;;;19.60;79.80;;;;;;5051839;28;20025;-90
2022/08/19 06:32:38;;;;;;;10.95;9.85;;;19.70;81.40;;;;;;5051944;28;20028;-89
2022/08/19 06:35:04;;;;;;;10.95;9.82;;;19.70;75.70;;;;;;5034099;28;20036;-89
2022/08/19 06:37:30;;;;;;;11.55;10.23;;;19.70;85.50;;;;;;5051858;28;20043;-89
2022/08/19 06:39:56;;;;;;;10.57;9.50;;;19.60;90.00;;;;;;5036382;28;20505;-89
2022/08/19 06:42:21;;;;;;;10.60;9.50;;;19.50;83.10;;;;;;5055402;28;20029;-89
2022/08/19 06:44:49;;;;;;;11.25;10.10;;;19.60;87.00;;;;;;5056034;28;20023;-88
2022/08/19 06:47:18;;;;;;;11.27;10.18;;;19.70;99.90;;;;;;5055660;28;20059;-89
2022/08/19 06:49:44;;;;;;;10.13;9.23;;;19.80;92.40;;;;;;5055630;28;20079;-89
2022/08/19 06:52:14;;;;;;;10.57;9.57;;;19.90;83.30;;;;;;5055602;28;20485;-89
2022/08/19 06:54:41;;;;;;;12.07;9.27;;;20.10;92.10;;;;;;5055092;28;20104;-89
2022/08/19 06:57:08;;;;;;;10.60;9.50;;;20.10;93.00;;;;;;5055512;28;20112;-89
2022/08/19 06:59:35;;;;;;;9.52;8.65;;;20.20;90.70;;;;;;5055464;28;20040;-89
2022/08/19 07:02:06;;;;;;;10.18;9.27;;;20.40;87.20;;;;;;5055551;28;20104;-89
2022/08/19 07:04:33;;;;;;;10.40;8.70;;;20.40;92.50;;;;;;5055379;28;20032;-89
2022/08/19 07:07:03;;;;;;;9.65;8.68;;;20.60;91.20;;;;;;5055394;28;20051;-89
2022/08/19 07:09:29;;;;;;;9.27;8.48;;;20.60;90.30;;;;;;5055007;28;20025;-89
2022/08/19 07:11:56;;;;;;;9.40;8.52;;;20.60;88.00;;;;;;5055462;28;20036;-89
2022/08/19 07:14:24;;;;;;;9.00;8.15;;;20.70;80.50;;;;;;5055227;28;20195;-89
2022/08/19 07:16:52;;;;;;;9.38;8.52;;;20.50;91.50;;;;;;5055350;28;20068;-89
2022/08/19 07:19:19;;;;;;;9.02;8.23;;;20.50;91.60;;;;;;5055288;28;20021;-89
2022/08/19 07:21:46;;;;;;;9.30;8.48;;;20.40;83.00;;;;;;5055258;28;20036;-89
2022/08/19 07:24:12;;;;;;;9.45;8.60;;;20.50;91.70;;;;;;5054507;28;20176;-88
2022/08/19 07:26:41;;;;;;;10.68;9.20;;;20.40;92.00;;;;;;5054744;28;20055;-89
2022/08/19 07:29:07;;;;;;;10.38;9.32;;;20.40;96.40;;;;;;5054783;28;20137;-90
2022/08/19 07:31:36;;;;;;;9.68;8.85;;;20.30;81.10;;;;;;5054866;28;20061;-89
2022/08/19 07:34:07;;;;;;;10.82;9.73;;;20.40;87.50;;;;;;5054852;28;20028;-89
2022/08/19 07:36:35;;;;;;;10.27;9.32;;;20.40;86.20;;;;;;5054722;28;20114;-90
2022/08/19 07:39:09;;;;;;;10.25;9.25;;;20.40;87.60;;;;;;5054357;28;20029;-90
2022/08/19 07:41:36;;;;;;;10.10;9.10;;;20.50;90.00;;;;;;5054591;28;20036;-90
2022/08/19 07:44:03;;;;;;;10.32;9.25;;;20.50;83.50;;;;;;5054606;28;20029;-89
2022/08/19 07:46:31;;;;;;;9.47;8.67;;;20.50;90.80;;;;;;5054604;28;20032;-90
2022/08/19 07:48:57;;;;;;;10.05;9.05;;;20.60;89.30;;;;;;5054492;28;20159;-90
2022/08/19 07:51:23;;;;;;;10.88;9.15;;;20.50;84.20;;;;;;5053914;28;20460;-90
2022/08/19 07:53:50;;;;;;;9.63;8.73;;;20.70;87.80;;;;;;5054178;28;20025;-90
2022/08/19 07:56:18;;;;;;;10.13;9.15;;;21.00;89.10;;;;;;5036492;28;20067;-89
2022/08/19 07:58:47;;;;;;;10.25;9.35;;;21.10;86.50;;;;;;5054370;28;20043;-89
2022/08/19 08:01:16;;;;;;;9.48;8.68;;;20.90;85.70;;;;;;5054357;28;20033;-90
2022/08/19 08:09:12;;;;;;;10.30;9.38;;;20.70;84.20;;;;;;5048108;28;20043;-89
2022/08/19 08:12:03;;;;;;;10.38;9.30;;;20.70;83.90;;;;;;5054097;28;20028;-89
2022/08/19 08:14:45;;;;;;;9.95;9.05;;;20.70;86.80;;;;;;5053779;28;20557;-90
2022/08/19 08:17:14;;;;;;;10.75;9.73;;;20.60;87.60;;;;;;5054006;28;20025;-90
2022/08/19 08:19:41;;;;;;;10.93;9.77;;;20.60;86.90;;;;;;5053985;28;20025;-89
2022/08/19 08:23:21;;;;;;;10.65;9.65;;;20.40;87.90;;;;;;5053661;28;20025;-89
2022/08/19 08:24:58;;;;;;;11.10;10.00;;;20.50;88.40;;;;;;5053569;28;20021;-89
2022/08/19 08:27:23;;;;;;;10.88;9.98;;;20.60;83.20;;;;;;5053582;28;20076;-89
2022/08/19 08:29:49;;;;;;;10.68;9.57;;;20.70;83.30;;;;;;5053653;28;20461;-89
2022/08/19 08:32:15;;;;;;;10.88;9.75;;;21.10;90.60;;;;;;5053733;28;20036;-89
2022/08/19 08:34:42;;;;;;;11.43;10.43;;;21.30;80.40;;;;;;5035674;28;20025;-89
2022/08/19 08:37:07;;;;;;;11.13;10.13;;;21.50;85.60;;;;;;5053216;28;20021;-90
2022/08/19 08:39:33;;;;;;;11.27;10.18;;;21.40;77.40;;;;;;5053566;28;20083;-89
2022/08/19 08:42:34;;;;;;;11.70;10.60;;;21.40;80.70;;;;;;5053652;28;20020;-89
2022/08/19 08:45:12;;;;;;;11.77;10.25;;;21.50;91.00;;;;;;5039545;28;20443;-89
2022/08/19 08:47:39;;;;;;;13.43;10.48;;;21.60;88.60;;;;;;5053279;28;20091;-89
2022/08/19 08:50:15;;;;;;;11.65;10.38;;;22.00;89.30;;;;;;5035552;28;20053;-89
2022/08/19 08:52:48;;;;;;;11.75;10.65;;;22.20;90.80;;;;;;5053055;28;20086;-88
2022/08/19 08:55:25;;;;;;;11.73;10.63;;;22.00;90.20;;;;;;5053185;28;20029;-89
2022/08/19 08:58:00;;;;;;;12.13;11.10;;;22.00;90.00;;;;;;5053454;28;20184;-89
2022/08/19 09:00:32;;;;;;;13.18;11.85;;;22.10;87.30;;;;;;5053209;28;20070;-89
2022/08/19 09:03:01;;;;;;;12.57;11.02;;;22.10;87.70;;;;;;5052083;28;20032;-89
2022/08/19 09:05:38;;;;;;;12.85;11.55;;;21.80;90.10;;;;;;5052663;28;20040;-89
2022/08/19 09:08:10;;;;;;;13.07;11.88;;;21.50;92.00;;;;;;5053090;28;20037;-89
2022/08/19 09:10:44;;;;;;;13.48;12.15;;;21.40;91.20;;;;;;5053098;28;20028;-88
2022/08/19 09:13:16;;;;;;;13.85;12.45;;;21.10;86.50;;;;;;5052856;28;20108;-89
2022/08/19 09:15:54;;;;;;;15.02;13.45;;;21.10;90.40;;;;;;5052934;28;20048;-88
2022/08/19 09:18:20;;;;;;;15.00;13.60;;;21.30;90.80;;;;;;5035028;28;20047;-88
2022/08/19 09:20:49;;;;;;;15.40;13.82;;;21.30;84.60;;;;;;5052554;28;20541;-88
2022/08/19 09:23:15;;;;;;;15.20;13.70;;;21.40;86.00;;;;;;5052793;28;20111;-88
2022/08/19 09:25:41;;;;;;;14.60;13.27;;;21.30;83.90;;;;;;5052680;28;20488;-88
2022/08/19 09:28:07;;;;;;;15.02;13.43;;;21.70;82.50;;;;;;5052429;28;20052;-88
2022/08/19 09:30:39;;;;;;;15.85;13.63;;;22.10;83.20;;;;;;5052616;28;20032;-88
2022/08/19 09:33:06;;;;;;;14.23;12.88;;;22.20;88.10;;;;;;5052688;28;20028;-88
2022/08/19 09:35:32;;;;;;;14.88;13.50;;;22.50;84.30;;;;;;5052125;28;20025;-88
2022/08/19 09:37:59;;;;;;;15.07;13.60;;;22.40;84.00;;;;;;5052751;28;20082;-88
2022/08/19 09:40:29;;;;;;;18.27;14.80;;;22.50;86.40;;;;;;5034717;28;20114;-88
2022/08/19 09:42:54;;;;;;;15.93;14.20;;;22.70;87.20;;;;;;5052376;28;20557;-89
2022/08/19 09:45:21;;;;;;;15.15;13.65;;;22.80;86.60;;;;;;5052591;28;20163;-87
2022/08/19 09:47:52;;;;;;;16.48;14.32;;;23.00;77.40;;;;;;5052451;28;20068;-88
2022/08/19 09:50:18;;;;;;;15.05;13.55;;;22.80;86.70;;;;;;5052053;28;20018;-88
2022/08/19 09:52:45;;;;;;;14.85;13.45;;;23.10;79.60;;;;;;5052303;28;20171;-88
2022/08/19 09:55:10;;;;;;;14.65;13.20;;;23.70;80.40;;;;;;5052333;28;20028;-88
2022/08/19 09:57:36;;;;;;;14.30;12.80;;;24.20;72.20;;;;;;5052397;28;20025;-88
2022/08/19 10:00:07;;;;;;;15.30;13.90;;;24.10;80.90;;;;;;5052446;28;20036;-88
2022/08/19 10:02:34;;;;;;;15.73;14.00;;;23.90;78.30;;;;;;5052160;28;20371;-88
2022/08/19 10:07:43;;;;;;;15.55;14.05;;;23.60;77.10;;;;;;5052210;28;20418;-87
2022/08/19 10:10:10;;;;;;;15.32;13.88;;;24.40;71.90;;;;;;5052238;28;20021;-87
2022/08/19 10:12:36;;;;;;;14.95;13.50;;;25.20;78.80;;;;;;5052358;28;20504;-88
2022/08/19 10:15:02;;;;;;;15.50;14.00;;;25.60;73.90;;;;;;5054518;28;20029;-88
2022/08/19 10:17:28;;;;;;;15.18;13.68;;;25.80;73.80;;;;;;5056279;28;20029;-88
2022/08/19 10:19:54;;;;;;;15.32;13.98;;;24.40;71.70;;;;;;5055882;28;20083;-88
2022/08/19 10:22:20;;;;;;;15.50;13.93;;;23.40;61.70;;;;;;5056192;28;20086;-88
2022/08/19 10:24:46;;;;;;;15.90;14.40;;;22.60;68.20;;;;;;5056067;28;20052;-88
2022/08/19 10:27:13;;;;;;;16.30;14.63;;;22.70;70.20;;;;;;5055838;28;20513;-88
2022/08/19 10:29:40;;;;;;;17.17;15.45;;;22.40;69.30;;;;;;5055980;28;20036;-88
2022/08/19 10:32:08;;;;;;;16.92;15.23;;;22.10;73.60;;;;;;5055966;28;20042;-87
2022/08/19 10:34:35;;;;;;;17.65;16.02;;;21.80;74.70;;;;;;5055795;28;20107;-88
2022/08/19 10:37:05;;;;;;;17.35;15.50;;;21.60;76.00;;;;;;5055811;28;20040;-88
2022/08/19 10:39:32;;;;;;;18.15;16.33;;;21.50;77.80;;;;;;5055946;28;20045;-87
2022/08/19 10:41:58;;;;;;;17.52;15.93;;;21.60;83.30;;;;;;5055875;28;20025;-87
2022/08/19 10:44:25;;;;;;;17.58;15.88;;;21.50;72.70;;;;;;5055804;28;20359;-88
2022/08/19 10:46:51;;;;;;;18.88;16.88;;;21.30;80.60;;;;;;5055166;28;20029;-88
2022/08/19 10:49:18;;;;;;;18.73;16.70;;;21.40;74.40;;;;;;5055881;28;20031;-88
2022/08/19 10:56:50;;;;;;;18.00;16.13;;;21.30;73.70;;;;;;5055951;28;20039;-88
2022/08/19 10:57:15;;;;;;;19.05;16.70;;;21.30;72.70;;;;;;5049835;28;20048;-88
2022/08/19 10:59:41;;;;;;;17.33;15.63;;;21.40;68.30;;;;;;5055501;28;20037;-88
2022/08/19 11:02:09;;;;;;;17.52;15.82;;;21.30;65.30;;;;;;5055043;28;20442;-88
2022/08/19 11:04:39;;;;;;;17.83;16.08;;;21.40;73.00;;;;;;5055432;28;20044;-87
2022/08/19 11:07:05;;;;;;;17.70;16.08;;;21.50;77.90;;;;;;5055091;28;20033;-88
2022/08/19 11:09:37;;;;;;;17.65;15.90;;;21.50;78.30;;;;;;5055372;28;20485;-88
2022/08/19 11:12:03;;;;;;;17.75;16.05;;;21.50;90.20;;;;;;5055490;28;20045;-88
2022/08/19 11:14:30;;;;;;;17.50;15.80;;;21.40;67.40;;;;;;5037088;28;20405;-88
2022/08/19 11:16:56;;;;;;;18.13;16.33;;;21.40;70.40;;;;;;5054853;28;20071;-88
2022/08/19 11:19:23;;;;;;;17.15;15.45;;;21.50;66.00;;;;;;5055108;28;20445;-87
2022/08/19 11:21:50;;;;;;;16.98;15.35;;;21.50;66.20;;;;;;5055042;28;20025;-87
2022/08/19 11:24:22;;;;;;;18.13;16.30;;;21.40;75.80;;;;;;5055062;28;20040;-87
2022/08/19 11:26:50;;;;;;;17.70;15.90;;;21.30;77.20;;;;;;5053635;28;20102;-88
2022/08/19 11:29:17;;;;;;;17.05;15.45;;;21.50;78.60;;;;;;5054745;28;20032;-88
2022/08/19 11:31:46;;;;;;;17.05;15.15;;;21.80;81.60;;;;;;5054641;28;20036;-87
2022/08/19 11:34:17;;;;;;;16.77;15.07;;;21.90;77.00;;;;;;5054828;28;20422;-88
2022/08/19 11:36:45;;;;;;;18.35;16.65;;;22.00;74.70;;;;;;5054715;28;20052;-88
2022/08/19 11:39:13;;;;;;;16.85;15.27;;;21.80;72.20;;;;;;5054752;28;20028;-88
2022/08/19 11:41:39;;;;;;;15.93;14.43;;;21.80;75.60;;;;;;5054680;28;20028;-88
2022/08/19 11:44:07;;;;;;;17.80;16.00;;;22.10;77.10;;;;;;5054607;28;20485;-88
2022/08/19 11:46:34;;;;;;;17.77;16.00;;;22.10;79.20;;;;;;5054290;28;20075;-88
2022/08/19 11:49:00;;;;;;;16.52;15.05;;;22.20;75.80;;;;;;5054677;28;20502;-88
2022/08/19 11:51:27;;;;;;;18.58;16.73;;;22.20;74.10;;;;;;5054548;28;20063;-87
2022/08/19 11:53:55;;;;;;;17.73;15.93;;;22.30;74.10;;;;;;5054469;28;20033;-88
2022/08/19 11:56:21;;;;;;;17.38;15.75;;;22.30;73.30;;;;;;5054338;28;20112;-88
2022/08/19 11:58:47;;;;;;;18.00;16.27;;;22.30;68.00;;;;;;5054413;28;20382;-87
2022/08/19 12:01:16;;;;;;;16.52;14.93;;;22.20;66.40;;;;;;5054006;28;20074;-88
2022/08/19 12:03:43;;;;;;;17.55;15.85;;;22.00;75.50;;;;;;5054260;28;20021;-88
2022/08/19 12:06:13;;;;;;;17.70;15.95;;;21.80;75.00;;;;;;5036382;28;20032;-88
2022/08/19 12:08:39;;;;;;;17.63;15.95;;;21.60;77.70;;;;;;5054094;28;20040;-88
2022/08/19 12:11:07;;;;;;;17.17;15.50;;;21.60;74.20;;;;;;5054215;28;20477;-88
2022/08/19 12:13:34;;;;;;;18.33;16.63;;;21.60;64.30;;;;;;5053650;28;20108;-88
2022/08/19 12:16:00;;;;;;;17.50;15.80;;;21.50;78.70;;;;;;5053838;28;20021;-88
2022/08/19 12:18:26;;;;;;;16.80;15.30;;;21.60;68.90;;;;;;5053945;28;20033;-88
2022/08/19 12:20:56;;;;;;;16.65;14.93;;;21.70;72.00;;;;;;5053798;28;20029;-88
2022/08/19 12:23:22;;;;;;;17.55;15.32;;;21.70;72.90;;;;;;5053954;28;20021;-87
2022/08/19 12:25:52;;;;;;;16.98;15.23;;;21.90;71.80;;;;;;5053719;28;20021;-87
2022/08/19 12:28:22;;;;;;;16.58;14.70;;;22.00;71.40;;;;;;5053236;28;20044;-88
2022/08/19 12:30:50;;;;;;;16.70;15.10;;;22.10;75.20;;;;;;5053597;28;20025;-88
2022/08/19 12:33:23;;;;;;;16.75;14.95;;;22.30;71.60;;;;;;5053639;28;20108;-88
2022/08/19 12:35:50;;;;;;;17.05;15.35;;;22.40;78.50;;;;;;5053714;28;20032;-87
2022/08/19 12:38:16;;;;;;;16.83;15.25;;;22.30;70.60;;;;;;5053332;28;20028;-88
2022/08/19 12:40:46;;;;;;;16.95;15.27;;;22.20;75.60;;;;;;5053557;28;20039;-88
2022/08/19 12:43:13;;;;;;;17.30;15.63;;;22.50;76.70;;;;;;5053299;28;20079;-87
2022/08/19 12:45:39;;;;;;;15.80;14.23;;;22.40;66.10;;;;;;5053536;28;20017;-88
2022/08/19 12:48:04;;;;;;;15.45;13.95;;;22.60;70.00;;;;;;5053428;28;20036;-88
2022/08/19 12:50:30;;;;;;;15.02;13.52;;;22.80;68.90;;;;;;5053437;28;20082;-88
2022/08/19 12:52:57;;;;;;;15.55;13.93;;;22.90;67.80;;;;;;5053378;28;20397;-87
2022/08/19 12:55:24;;;;;;;16.65;13.18;;;23.40;76.20;;;;;;5053206;28;20021;-88
2022/08/19 12:57:50;;;;;;;14.70;13.32;;;23.80;68.70;;;;;;5053018;28;20041;-88
2022/08/19 13:00:20;;;;;;;14.75;13.23;;;23.90;66.50;;;;;;5053241;28;20104;-88
2022/08/19 13:02:49;;;;;;;15.85;12.80;;;24.10;72.60;;;;;;5053190;28;20025;-88